createdAt,value
2022-11-09T00:02:28.590Z,7.55
2022-11-09T00:05:32.350Z,7.51
2022-11-09T00:08:37.802Z,7.47
2022-11-09T00:11:41.389Z,7.44
2022-11-09T00:14:45.186Z,7.39
2022-11-09T00:17:48.730Z,7.36
2022-11-09T00:20:52.343Z,7.34
2022-11-09T00:23:56.863Z,7.35
2022-11-09T00:27:00.625Z,7.37
2022-11-09T00:30:04.995Z,7.37
2022-11-09T00:33:10.701Z,7.37
2022-11-09T00:36:14.791Z,7.37
2022-11-09T00:39:18.745Z,7.36
2022-11-09T00:42:22.536Z,7.34
2022-11-09T00:45:26.145Z,7.34
2022-11-09T00:48:29.849Z,7.35
2022-11-09T00:51:33.551Z,7.37
2022-11-09T00:54:37.150Z,7.36
2022-11-09T00:57:40.861Z,7.34
2022-11-09T01:00:44.526Z,7.30
2022-11-09T01:03:48.566Z,7.27
2022-11-09T01:06:52.296Z,7.22
2022-11-09T01:09:56.095Z,7.20
2022-11-09T01:12:59.933Z,7.19
2022-11-09T01:16:07.852Z,7.18
2022-11-09T01:19:12.650Z,7.19
2022-11-09T01:22:18.402Z,7.18
2022-11-09T01:25:22.102Z,7.17
2022-11-09T01:28:25.774Z,7.19
2022-11-09T01:31:29.520Z,7.21
2022-11-09T01:34:33.646Z,7.21
2022-11-09T01:37:37.440Z,7.21
2022-11-09T01:40:41.564Z,7.19
2022-11-09T01:43:46.382Z,7.19
2022-11-09T01:46:55.315Z,7.20
2022-11-09T01:50:00.783Z,7.22
2022-11-09T01:53:09.216Z,7.23
2022-11-09T01:56:14.815Z,7.23
2022-11-09T01:59:22.279Z,7.20
2022-11-09T02:02:26.073Z,7.17
2022-11-09T02:05:33.642Z,7.15
2022-11-09T02:08:37.910Z,7.15
2022-11-09T02:11:41.659Z,7.15
2022-11-09T02:14:47.761Z,7.17
2022-11-09T02:17:53.739Z,7.18
2022-11-09T02:20:58.638Z,7.20
2022-11-09T02:24:02.761Z,7.19
2022-11-09T02:27:07.088Z,7.20
2022-11-09T02:30:13.683Z,7.20
2022-11-09T02:33:18.019Z,7.21
2022-11-09T02:36:23.043Z,7.22
2022-11-09T02:39:28.670Z,7.23
2022-11-09T02:42:32.644Z,7.23
2022-11-09T02:45:36.316Z,7.23
2022-11-09T02:48:40.056Z,7.21
2022-11-09T02:51:43.679Z,7.20
2022-11-09T02:54:47.674Z,7.20
2022-11-09T02:57:51.324Z,7.20
2022-11-09T03:00:55.059Z,7.17
2022-11-09T03:03:58.792Z,7.11
2022-11-09T03:07:02.524Z,7.04
2022-11-09T03:10:07.971Z,6.99
2022-11-09T03:13:11.700Z,6.98
2022-11-09T03:16:15.461Z,6.98
2022-11-09T03:19:19.170Z,7.00
2022-11-09T03:22:22.893Z,7.04
2022-11-09T03:25:27.061Z,7.07
2022-11-09T03:28:30.738Z,7.10
2022-11-09T03:31:34.503Z,7.12
2022-11-09T03:34:38.262Z,7.13
2022-11-09T03:37:41.967Z,7.11
2022-11-09T03:40:45.733Z,7.07
2022-11-09T03:43:49.394Z,7.06
2022-11-09T03:46:53.074Z,7.05
2022-11-09T03:49:56.842Z,7.04
2022-11-09T03:53:01.222Z,7.02
2022-11-09T03:56:05.218Z,7.00
2022-11-09T03:59:08.986Z,6.98
2022-11-09T04:02:12.666Z,6.94
2022-11-09T04:05:16.630Z,6.91
2022-11-09T04:08:20.515Z,6.90
2022-11-09T04:11:24.160Z,6.88
2022-11-09T04:14:27.824Z,6.87
2022-11-09T04:17:31.638Z,6.85
2022-11-09T04:20:35.281Z,6.82
2022-11-09T04:23:39.050Z,6.81
2022-11-09T04:26:42.897Z,6.79
2022-11-09T04:29:46.434Z,6.73
2022-11-09T04:32:50.102Z,6.69
2022-11-09T04:35:53.873Z,6.65
2022-11-09T04:38:57.510Z,6.61
2022-11-09T04:42:01.531Z,6.54
2022-11-09T04:45:06.566Z,6.49
2022-11-09T04:48:11.989Z,6.45
2022-11-09T04:51:15.634Z,6.39
2022-11-09T04:54:19.383Z,6.37
2022-11-09T04:57:23.053Z,6.40
2022-11-09T05:00:26.859Z,6.42
2022-11-09T05:03:30.659Z,6.44
2022-11-09T05:06:34.593Z,6.44
2022-11-09T05:09:38.533Z,6.43
2022-11-09T05:12:45.876Z,6.42
2022-11-09T05:15:49.893Z,6.41
2022-11-09T05:18:53.446Z,6.41
2022-11-09T05:22:17.217Z,6.42
2022-11-09T05:25:20.859Z,6.44
2022-11-09T05:28:24.448Z,6.46
2022-11-09T05:31:28.807Z,6.46
2022-11-09T05:34:32.829Z,6.46
2022-11-09T05:37:37.833Z,6.45
2022-11-09T05:40:41.600Z,6.46
2022-11-09T05:43:45.579Z,6.48
2022-11-09T05:46:50.095Z,6.51
2022-11-09T05:49:53.845Z,6.50
2022-11-09T05:52:59.747Z,6.46
2022-11-09T05:56:04.703Z,6.44
2022-11-09T05:59:09.381Z,6.39
2022-11-09T06:02:13.350Z,6.34
2022-11-09T06:05:17.302Z,6.34
2022-11-09T06:08:21.100Z,6.37
2022-11-09T06:11:24.752Z,6.42
2022-11-09T06:14:28.347Z,6.46
2022-11-09T06:17:32.121Z,6.48
2022-11-09T06:20:35.891Z,6.49
2022-11-09T06:23:39.631Z,6.53
2022-11-09T06:26:43.398Z,6.55
2022-11-09T06:29:46.936Z,6.58
2022-11-09T06:32:50.646Z,6.62
2022-11-09T06:35:56.466Z,6.68
2022-11-09T06:39:00.461Z,6.72
2022-11-09T06:42:04.344Z,6.77
2022-11-09T06:45:10.242Z,6.82
2022-11-09T06:48:14.198Z,6.86
2022-11-09T06:51:18.210Z,6.87
2022-11-09T06:54:21.853Z,6.89
2022-11-09T06:57:25.556Z,6.90
2022-11-09T07:00:29.479Z,6.92
2022-11-09T07:03:33.100Z,6.96
2022-11-09T07:06:41.177Z,6.97
2022-11-09T07:09:44.953Z,7.00
2022-11-09T07:12:49.476Z,7.04
2022-11-09T07:15:54.866Z,7.09
2022-11-09T07:18:58.757Z,7.16
2022-11-09T07:22:02.501Z,7.23
2022-11-09T07:25:08.136Z,7.33
2022-11-09T07:28:12.742Z,7.45
2022-11-09T07:31:16.468Z,7.54
2022-11-09T07:34:20.166Z,7.62
2022-11-09T07:37:23.879Z,7.72
2022-11-09T07:40:27.507Z,7.81
2022-11-09T07:43:31.350Z,7.89
2022-11-09T07:46:35.542Z,7.97
2022-11-09T07:49:39.378Z,8.08
2022-11-09T07:52:43.023Z,8.20
2022-11-09T07:55:46.687Z,8.32
2022-11-09T07:58:51.744Z,8.44
2022-11-09T08:01:55.618Z,8.61
2022-11-09T08:04:59.278Z,8.77
2022-11-09T08:08:04.828Z,8.92
2022-11-09T08:11:08.599Z,9.06
2022-11-09T08:14:12.783Z,9.20
2022-11-09T08:17:16.544Z,9.35
2022-11-09T08:20:21.168Z,9.49
2022-11-09T08:23:24.855Z,9.64
2022-11-09T08:26:28.479Z,9.77
2022-11-09T08:29:32.064Z,9.93
2022-11-09T08:32:36.033Z,10.06
2022-11-09T08:35:39.780Z,10.19
2022-11-09T08:38:44.962Z,10.37
2022-11-09T08:41:48.512Z,10.54
2022-11-09T08:44:52.199Z,10.73
2022-11-09T08:47:59.540Z,10.90
2022-11-09T08:51:03.226Z,11.05
2022-11-09T08:54:07.362Z,11.22
2022-11-09T08:57:11.992Z,11.39
2022-11-09T09:00:17.667Z,11.58
2022-11-09T09:03:21.345Z,11.74
2022-11-09T09:06:30.668Z,11.89
2022-11-09T09:09:37.178Z,12.08
2022-11-09T09:12:40.946Z,12.26
2022-11-09T09:15:44.489Z,12.43
2022-11-09T09:18:49.807Z,12.58
2022-11-09T09:21:53.906Z,12.74
2022-11-09T09:24:57.563Z,12.90
2022-11-09T09:28:01.153Z,13.06
2022-11-09T09:31:05.026Z,13.21
2022-11-09T09:34:08.899Z,13.38
2022-11-09T09:37:12.552Z,13.60
2022-11-09T09:40:25.307Z,13.79
2022-11-09T09:43:37.181Z,14.00
2022-11-09T09:46:47.323Z,14.18
2022-11-09T09:49:58.460Z,14.38
2022-11-09T09:53:23.871Z,14.58
2022-11-09T09:56:33.973Z,14.76
2022-11-09T09:59:42.330Z,14.93
2022-11-09T10:02:46.193Z,15.07
2022-11-09T10:05:58.519Z,15.16
2022-11-09T10:09:10.124Z,14.80
2022-11-09T10:12:25.673Z,14.38
2022-11-09T10:15:34.396Z,14.23
2022-11-09T10:18:48.038Z,14.64
2022-11-09T10:21:57.804Z,15.02
2022-11-09T10:25:27.333Z,15.24
2022-11-09T10:29:09.129Z,14.92
2022-11-09T10:32:16.385Z,14.77
2022-11-09T10:35:27.566Z,15.21
2022-11-09T10:38:36.902Z,15.59
2022-11-09T10:41:43.681Z,15.56
2022-11-09T10:44:46.698Z,15.20
2022-11-09T10:47:51.195Z,14.92
2022-11-09T10:50:54.145Z,14.85
2022-11-09T10:54:15.429Z,15.28
2022-11-09T10:57:21.254Z,15.64
2022-11-09T11:00:24.667Z,15.38
2022-11-09T11:03:28.409Z,15.07
2022-11-09T11:06:31.513Z,15.00
2022-11-09T11:09:34.588Z,15.44
2022-11-09T11:12:37.437Z,15.79
2022-11-09T11:15:42.025Z,15.58
2022-11-09T11:18:47.269Z,15.31
2022-11-09T11:22:15.381Z,15.14
2022-11-09T11:25:21.340Z,15.18
2022-11-09T11:28:31.858Z,15.70
2022-11-09T11:31:34.795Z,16.05
2022-11-09T11:34:59.313Z,15.85
2022-11-09T11:38:16.776Z,15.56
2022-11-09T11:41:46.387Z,15.42
2022-11-09T11:45:34.070Z,15.37
2022-11-09T11:48:55.650Z,15.56
2022-11-09T11:52:06.390Z,16.24
2022-11-09T11:55:23.930Z,16.65
2022-11-09T11:58:43.825Z,16.47
2022-11-09T12:02:18.348Z,16.26
2022-11-09T12:05:46.102Z,16.14
2022-11-09T12:09:01.827Z,16.09
2022-11-09T12:12:15.058Z,16.06
2022-11-09T12:15:27.943Z,16.04
2022-11-09T12:18:44.453Z,16.03
2022-11-09T12:21:55.402Z,16.01
2022-11-09T12:25:09.586Z,16.00
2022-11-09T12:28:29.376Z,15.99
2022-11-09T12:31:46.716Z,15.98
2022-11-09T12:34:57.105Z,15.97
2022-11-09T12:38:08.206Z,15.97
2022-11-09T12:41:15.741Z,15.97
2022-11-09T12:44:22.679Z,15.97
2022-11-09T12:47:31.712Z,15.98
2022-11-09T12:50:36.157Z,15.98
2022-11-09T12:53:40.377Z,15.98
2022-11-09T12:56:51.770Z,16.00
2022-11-09T12:59:56.081Z,16.03
2022-11-09T13:03:02.223Z,16.05
2022-11-09T13:06:17.796Z,16.07
2022-11-09T13:09:25.318Z,16.09
2022-11-09T13:12:38.715Z,16.09
2022-11-09T13:16:10.948Z,16.09
2022-11-09T13:19:54.280Z,16.07
2022-11-09T13:23:01.660Z,16.04
2022-11-09T13:26:05.628Z,16.00
2022-11-09T13:29:20.418Z,15.95
2022-11-09T13:32:28.830Z,15.91
2022-11-09T13:36:16.469Z,15.84
2022-11-09T13:39:38.504Z,15.78
2022-11-09T13:42:41.676Z,15.72
2022-11-09T13:45:46.279Z,15.77
2022-11-09T13:48:50.499Z,16.26
2022-11-09T13:51:53.981Z,16.71
2022-11-09T13:54:57.213Z,16.93
2022-11-09T13:58:03.790Z,16.64
2022-11-09T14:01:23.886Z,16.31
2022-11-09T14:04:28.365Z,16.08
2022-11-09T14:07:34.738Z,15.88
2022-11-09T14:10:54.735Z,15.66
2022-11-09T14:14:17.702Z,15.46
2022-11-09T14:17:29.064Z,15.45
2022-11-09T14:20:40.831Z,15.89
2022-11-09T14:23:43.813Z,16.26
2022-11-09T14:27:12.404Z,16.49
2022-11-09T14:30:20.864Z,16.64
2022-11-09T14:33:26.016Z,16.63
2022-11-09T14:36:30.535Z,16.17
2022-11-09T14:39:34.498Z,15.73
2022-11-09T14:42:40.795Z,15.39
2022-11-09T14:45:50.646Z,15.11
2022-11-09T14:48:55.173Z,14.98
2022-11-09T14:51:58.775Z,15.32
2022-11-09T14:55:02.082Z,15.63
2022-11-09T14:58:05.371Z,15.81
2022-11-09T15:01:16.211Z,15.92
2022-11-09T15:04:23.075Z,16.00
2022-11-09T15:07:29.855Z,16.05
2022-11-09T15:10:33.815Z,16.09
2022-11-09T15:13:39.495Z,16.09
2022-11-09T15:16:42.833Z,15.98
2022-11-09T15:19:51.220Z,15.42
2022-11-09T15:22:55.885Z,14.87
2022-11-09T15:25:58.865Z,14.43
2022-11-09T15:29:03.244Z,14.15
2022-11-09T15:32:17.568Z,14.35
2022-11-09T15:35:20.944Z,14.55
2022-11-09T15:38:33.373Z,14.65
2022-11-09T15:41:37.377Z,14.68
2022-11-09T15:44:40.346Z,14.70
2022-11-09T15:47:51.380Z,14.71
2022-11-09T15:50:54.570Z,14.69
2022-11-09T15:53:57.514Z,14.67
2022-11-09T15:57:00.505Z,14.66
2022-11-09T16:00:12.612Z,14.62
2022-11-09T16:03:17.349Z,14.58
2022-11-09T16:06:21.810Z,14.51
2022-11-09T16:09:24.750Z,14.44
2022-11-09T16:12:27.640Z,14.38
2022-11-09T16:15:31.140Z,14.29
2022-11-09T16:18:34.628Z,14.17
2022-11-09T16:21:37.628Z,14.01
2022-11-09T16:24:41.542Z,13.88
2022-11-09T16:27:52.214Z,13.74
2022-11-09T16:30:55.226Z,13.65
2022-11-09T16:33:58.703Z,13.60
2022-11-09T16:37:03.461Z,13.57
2022-11-09T16:40:11.871Z,13.51
2022-11-09T16:43:15.152Z,13.44
2022-11-09T16:46:22.667Z,13.38
2022-11-09T16:49:25.712Z,13.33
2022-11-09T16:52:29.031Z,13.28
2022-11-09T16:55:32.221Z,13.24
2022-11-09T16:58:35.620Z,13.19
2022-11-09T17:01:38.564Z,13.14
2022-11-09T17:04:41.523Z,13.06
2022-11-09T17:07:46.432Z,12.98
2022-11-09T17:10:49.343Z,12.93
2022-11-09T17:13:56.531Z,12.86
2022-11-09T17:16:59.495Z,12.80
2022-11-09T17:20:05.096Z,12.74
2022-11-09T17:23:08.343Z,12.69
2022-11-09T17:26:12.358Z,12.63
2022-11-09T17:29:15.858Z,12.55
2022-11-09T17:32:24.375Z,12.46
2022-11-09T17:35:28.227Z,12.41
2022-11-09T17:38:32.632Z,12.38
2022-11-09T17:41:41.502Z,12.37
2022-11-09T17:44:45.755Z,12.36
2022-11-09T17:47:49.205Z,12.34
2022-11-09T17:50:53.305Z,12.33
2022-11-09T17:53:57.366Z,12.32
2022-11-09T17:57:01.762Z,12.29
2022-11-09T18:00:09.845Z,12.24
2022-11-09T18:03:13.323Z,12.16
2022-11-09T18:06:19.382Z,12.08
2022-11-09T18:12:46.044Z,11.94
2022-11-09T18:15:49.619Z,11.89
2022-11-09T18:18:58.208Z,11.82
2022-11-09T18:22:03.042Z,11.75
2022-11-09T18:25:08.482Z,11.71
2022-11-09T18:28:12.908Z,11.66
2022-11-09T18:31:16.167Z,11.59
2022-11-09T18:34:19.154Z,11.52
2022-11-09T18:37:24.224Z,11.45
2022-11-09T18:40:28.000Z,11.37
2022-11-09T18:43:32.142Z,11.31
2022-11-09T18:46:35.434Z,11.26
2022-11-09T18:49:38.417Z,11.21
2022-11-09T18:52:41.704Z,11.17
2022-11-09T18:55:45.145Z,11.12
2022-11-09T18:58:49.994Z,11.08
2022-11-09T19:01:53.433Z,11.03
2022-11-09T19:04:56.422Z,10.97
2022-11-09T19:07:59.322Z,10.91
2022-11-09T19:11:06.508Z,10.88
2022-11-09T19:14:10.087Z,10.84
2022-11-09T19:17:14.710Z,10.79
2022-11-09T19:20:18.275Z,10.77
2022-11-09T19:23:21.322Z,10.71
2022-11-09T19:26:24.312Z,10.65
2022-11-09T19:29:27.306Z,10.59
2022-11-09T19:32:32.412Z,10.55
2022-11-09T19:35:37.381Z,10.51
2022-11-09T19:38:40.673Z,10.49
2022-11-09T19:41:44.276Z,10.49
2022-11-09T19:44:49.845Z,10.46
2022-11-09T19:47:56.807Z,10.42
2022-11-09T19:51:01.041Z,10.38
2022-11-09T19:54:05.775Z,10.34
2022-11-09T19:57:09.483Z,10.26
2022-11-09T20:00:15.754Z,10.16
2022-11-09T20:03:17.921Z,10.11
2022-11-09T20:06:22.837Z,10.02
2022-11-09T20:09:29.655Z,9.97
2022-11-09T20:12:54.149Z,9.96
2022-11-09T20:16:01.914Z,9.95
2022-11-09T20:19:08.765Z,9.95
2022-11-09T20:22:12.599Z,9.96
2022-11-09T20:25:16.509Z,9.95
2022-11-09T20:28:20.562Z,9.93
2022-11-09T20:31:24.701Z,9.90
2022-11-09T20:34:30.559Z,9.85
2022-11-09T20:37:34.263Z,9.80
2022-11-09T20:40:37.914Z,9.76
2022-11-09T20:43:42.287Z,9.72
2022-11-09T20:46:45.851Z,9.68
2022-11-09T20:49:49.538Z,9.66
2022-11-09T20:52:53.310Z,9.67
2022-11-09T20:55:56.849Z,9.67
2022-11-09T20:59:00.481Z,9.67
2022-11-09T21:02:04.332Z,9.66
2022-11-09T21:05:08.839Z,9.65
2022-11-09T21:08:12.563Z,9.65
2022-11-09T21:11:16.720Z,9.63
2022-11-09T21:14:20.490Z,9.58
2022-11-09T21:17:24.577Z,9.51
2022-11-09T21:20:28.278Z,9.46
2022-11-09T21:23:50.177Z,9.39
2022-11-09T21:27:11.694Z,9.31
2022-11-09T21:30:15.836Z,9.25
2022-11-09T21:33:19.478Z,9.19
2022-11-09T21:36:23.168Z,9.13
2022-11-09T21:39:26.845Z,9.07
2022-11-09T21:42:30.605Z,9.04
2022-11-09T21:45:34.251Z,9.00
2022-11-09T21:48:37.865Z,8.96
2022-11-09T21:51:41.859Z,8.93
2022-11-09T21:54:45.627Z,8.92
2022-11-09T21:57:49.935Z,8.91
2022-11-09T22:00:53.601Z,8.89
2022-11-09T22:03:57.500Z,8.86
2022-11-09T22:07:01.189Z,8.84
2022-11-09T22:10:10.515Z,8.83
2022-11-09T22:13:33.606Z,8.80
2022-11-09T22:16:37.415Z,8.77
2022-11-09T22:19:59.451Z,8.72
2022-11-09T22:23:06.782Z,8.67
2022-11-09T22:26:10.516Z,8.63
2022-11-09T22:29:14.193Z,8.60
2022-11-09T22:32:18.063Z,8.60
2022-11-09T22:35:21.715Z,8.59
2022-11-09T22:38:25.885Z,8.59
2022-11-09T22:41:29.551Z,8.58
2022-11-09T22:44:33.400Z,8.55
2022-11-09T22:47:37.005Z,8.52
2022-11-09T22:50:40.655Z,8.51
2022-11-09T22:53:47.694Z,8.49
2022-11-09T22:56:51.355Z,8.48
2022-11-09T22:59:55.053Z,8.45
2022-11-09T23:02:58.290Z,8.39
2022-11-09T23:06:05.989Z,8.30
2022-11-09T23:09:09.093Z,8.24
2022-11-09T23:12:12.083Z,8.22
2022-11-09T23:15:15.377Z,8.20
2022-11-09T23:18:41.960Z,8.18
2022-11-09T23:21:44.820Z,8.14
2022-11-09T23:25:06.369Z,8.15
2022-11-09T23:28:11.403Z,8.15
2022-11-09T23:31:18.893Z,8.15
2022-11-09T23:34:22.164Z,8.13
2022-11-09T23:37:25.149Z,8.11
2022-11-09T23:40:28.878Z,8.10
2022-11-09T23:43:32.254Z,8.10
2022-11-09T23:46:35.109Z,8.09
2022-11-09T23:49:37.965Z,8.07
2022-11-09T23:52:40.914Z,8.04
2022-11-09T23:55:43.801Z,8.00
2022-11-09T23:58:51.547Z,7.97
